createdAt,value
2016-02-08T00:00:47.472Z,7.82
2016-02-08T00:01:47.489Z,7.82
2016-02-08T00:02:47.477Z,7.72
2016-02-08T00:03:47.480Z,7.74
2016-02-08T00:04:47.466Z,7.79
2016-02-08T00:05:47.471Z,7.77
2016-02-08T00:06:47.474Z,7.74
2016-02-08T00:07:47.508Z,7.72
2016-02-08T00:08:47.463Z,7.71
2016-02-08T00:09:47.466Z,7.74
2016-02-08T00:10:47.485Z,7.67
2016-02-08T00:11:47.472Z,7.77
2016-02-08T00:12:47.464Z,7.77
2016-02-08T00:13:47.483Z,7.68
2016-02-08T00:14:47.470Z,7.74
2016-02-08T00:15:47.473Z,7.68
2016-02-08T00:16:47.476Z,7.74
2016-02-08T00:17:47.463Z,7.75
2016-02-08T00:18:47.466Z,7.71
2016-02-08T00:19:47.471Z,7.74
2016-02-08T00:20:47.457Z,7.63
2016-02-08T00:21:47.460Z,7.71
2016-02-08T00:22:47.479Z,7.68
2016-02-08T00:23:47.465Z,7.68
2016-02-08T00:24:47.468Z,7.71
2016-02-08T00:25:47.486Z,7.67
2016-02-08T00:26:47.473Z,7.69
2016-02-08T00:27:47.463Z,7.69
2016-02-08T00:28:47.480Z,7.68
2016-02-08T00:29:47.452Z,7.67
2016-02-08T00:30:47.455Z,7.68
2016-02-08T00:31:47.458Z,7.68
2016-02-08T00:32:47.460Z,7.72
2016-02-08T00:33:47.463Z,7.69
2016-02-08T00:34:47.466Z,7.71
2016-02-08T00:35:47.457Z,7.71
2016-02-08T00:36:47.459Z,7.69
2016-02-08T00:37:47.446Z,7.67
2016-02-08T00:38:47.450Z,7.72
2016-02-08T00:39:47.452Z,7.69
2016-02-08T00:40:47.471Z,7.61
2016-02-08T00:41:47.459Z,7.64
2016-02-08T00:42:47.441Z,7.67
2016-02-08T00:43:47.443Z,7.64
2016-02-08T00:44:47.446Z,7.63
2016-02-08T00:45:47.465Z,7.72
2016-02-08T00:46:47.451Z,7.67
2016-02-08T00:47:47.454Z,7.67
2016-02-08T00:48:47.456Z,7.69
2016-02-08T00:49:47.459Z,7.69
2016-02-08T00:50:47.446Z,7.74
2016-02-08T00:51:47.448Z,7.69
2016-02-08T00:52:47.445Z,7.68
2016-02-08T00:53:47.447Z,7.68
2016-02-08T00:54:47.450Z,7.71
2016-02-08T00:55:47.484Z,7.68
2016-02-08T00:56:47.440Z,7.71
2016-02-08T00:57:47.443Z,7.69
2016-02-08T00:58:47.462Z,7.71
2016-02-08T00:59:47.449Z,7.68
2016-02-08T01:00:47.435Z,7.71
2016-02-08T01:01:47.454Z,7.68
2016-02-08T01:02:47.445Z,7.68
2016-02-08T01:03:47.433Z,7.67
2016-02-08T01:04:47.450Z,7.71
2016-02-08T01:05:47.438Z,7.67
2016-02-08T01:06:47.440Z,7.69
2016-02-08T01:07:47.444Z,7.61
2016-02-08T01:08:47.431Z,7.67
2016-02-08T01:09:47.434Z,7.61
2016-02-08T01:10:47.421Z,7.58
2016-02-08T01:11:47.426Z,7.64
2016-02-08T01:12:47.429Z,7.61
2016-02-08T01:13:47.432Z,7.61
2016-02-08T01:14:47.450Z,7.61
2016-02-08T01:15:47.423Z,7.64
2016-02-08T01:16:47.441Z,7.58
2016-02-08T01:17:47.428Z,7.61
2016-02-08T01:18:47.431Z,7.61
2016-02-08T01:19:47.418Z,7.6
2016-02-08T01:20:47.421Z,7.58
2016-02-08T01:21:47.423Z,7.6
2016-02-08T01:22:47.426Z,7.53
2016-02-08T01:23:47.429Z,7.58
2016-02-08T01:24:47.432Z,7.53
2016-02-08T01:25:47.418Z,7.52
2016-02-08T01:26:47.422Z,7.58
2016-02-08T01:27:47.409Z,7.57
2016-02-08T01:28:47.427Z,7.55
2016-02-08T01:29:47.430Z,7.53
2016-02-08T01:30:47.418Z,7.61
2016-02-08T01:31:47.404Z,7.6
2016-02-08T01:32:47.423Z,7.53
2016-02-08T01:33:47.268Z,7.57
2016-02-08T01:34:47.412Z,7.53
2016-02-08T01:35:47.431Z,7.39
2016-02-08T01:36:47.403Z,7.37
2016-02-08T01:37:47.421Z,7.48
2016-02-08T01:38:47.408Z,7.4
2016-02-08T01:39:47.410Z,7.37
2016-02-08T01:40:47.409Z,7.34
2016-02-08T01:41:47.991Z,7.43
2016-02-08T01:42:47.415Z,7.35
2016-02-08T01:43:47.403Z,7.32
2016-02-08T01:44:47.422Z,7.37
2016-02-08T01:45:47.424Z,7.37
2016-02-08T01:46:47.413Z,7.37
2016-02-08T01:47:47.399Z,7.35
2016-02-08T01:48:47.417Z,7.23
2016-02-08T01:49:47.468Z,7.21
2016-02-08T01:50:47.425Z,7.25
2016-02-08T01:51:48.208Z,7.21
2016-02-08T01:52:47.399Z,7.23
2016-02-08T01:53:47.557Z,7.2
2016-02-08T01:54:47.404Z,7.23
2016-02-08T01:55:47.406Z,7.23
2016-02-08T01:56:47.393Z,7.21
2016-02-08T01:57:47.396Z,7.16
2016-02-08T01:58:47.383Z,7.16
2016-02-08T01:59:47.387Z,7.05
2016-02-08T02:00:47.405Z,7.17
2016-02-08T02:01:47.391Z,7.16
2016-02-08T02:02:47.394Z,7.13
2016-02-08T02:03:47.402Z,7.09
2016-02-08T02:04:47.389Z,7.13
2016-02-08T02:05:47.392Z,7.09
2016-02-08T02:06:47.394Z,7.07
2016-02-08T02:07:47.381Z,7.03
2016-02-08T02:08:47.383Z,7.06
2016-02-08T02:09:47.376Z,7.09
2016-02-08T02:10:47.395Z,7.06
2016-02-08T02:11:47.381Z,7.03
2016-02-08T02:12:47.415Z,7.02
2016-02-08T02:13:47.372Z,6.97
2016-02-08T02:14:47.374Z,6.99
2016-02-08T02:15:47.392Z,6.95
2016-02-08T02:16:47.364Z,6.97
2016-02-08T02:17:47.367Z,6.92
2016-02-08T02:18:47.385Z,6.97
2016-02-08T02:19:47.372Z,6.92
2016-02-08T02:20:47.375Z,6.85
2016-02-08T02:21:47.362Z,6.91
2016-02-08T02:22:47.364Z,6.85
2016-02-08T02:23:47.367Z,6.84
2016-02-08T02:24:47.371Z,6.79
2016-02-08T02:25:47.374Z,6.84
2016-02-08T02:26:47.361Z,6.81
2016-02-08T02:27:47.363Z,6.85
2016-02-08T02:28:47.366Z,6.74
2016-02-08T02:29:47.353Z,6.77
2016-02-08T02:30:47.356Z,6.7
2016-02-08T02:31:47.359Z,6.69
2016-02-08T02:32:47.346Z,6.69
2016-02-08T02:33:47.349Z,6.73
2016-02-08T02:34:47.367Z,6.64
2016-02-08T02:35:47.339Z,6.59
2016-02-08T02:36:47.357Z,6.62
2016-02-08T02:37:47.345Z,6.62
2016-02-08T02:38:47.334Z,6.59
2016-02-08T02:39:47.368Z,6.58
2016-02-08T02:40:47.344Z,6.58
2016-02-08T02:41:47.330Z,6.58
2016-02-08T02:42:47.365Z,6.54
2016-02-08T02:43:47.321Z,6.55
2016-02-08T02:44:47.323Z,6.38
2016-02-08T02:45:47.341Z,6.44
2016-02-08T02:46:47.346Z,6.4
2016-02-08T02:47:47.318Z,6.46
2016-02-08T02:48:47.320Z,6.41
2016-02-08T02:49:47.339Z,6.36
2016-02-08T02:50:47.309Z,6.44
2016-02-08T02:51:47.313Z,6.44
2016-02-08T02:52:47.332Z,6.41
2016-02-08T02:53:47.319Z,6.46
2016-02-08T02:54:47.308Z,6.41
2016-02-08T02:55:47.342Z,6.41
2016-02-08T02:56:47.314Z,6.36
2016-02-08T02:57:47.301Z,6.34
2016-02-08T02:58:47.304Z,6.37
2016-02-08T02:59:47.291Z,6.33
2016-02-08T03:00:47.309Z,6.27
2016-02-08T03:01:47.296Z,6.36
2016-02-08T03:02:47.299Z,6.36
2016-02-08T03:03:47.286Z,6.31
2016-02-08T03:04:47.290Z,6.25
2016-02-08T03:05:47.307Z,6.21
2016-02-08T03:06:47.294Z,6.3
2016-02-08T03:07:47.282Z,6.19
2016-02-08T03:08:47.284Z,6.3
2016-02-08T03:09:47.287Z,6.21
2016-02-08T03:10:47.275Z,6.21
2016-02-08T03:11:47.263Z,6.25
2016-02-08T03:12:47.282Z,6.21
2016-02-08T03:13:47.268Z,6.18
2016-02-08T03:14:47.271Z,6.22
2016-02-08T03:15:47.274Z,6.31
2016-02-08T03:16:47.292Z,6.3
2016-02-08T03:17:47.264Z,6.17
2016-02-08T03:18:47.251Z,6.17
2016-02-08T03:19:47.268Z,6.21
2016-02-08T03:20:47.257Z,6.17
2016-02-08T03:21:47.248Z,6.19
2016-02-08T03:22:47.267Z,6.15
2016-02-08T03:23:47.238Z,6.14
2016-02-08T03:24:47.257Z,6.11
2016-02-08T03:25:47.242Z,6.12
2016-02-08T03:26:47.230Z,6.15
2016-02-08T03:27:47.233Z,6.11
2016-02-08T03:28:47.236Z,6.14
2016-02-08T03:29:47.240Z,6.15
2016-02-08T03:30:47.243Z,6.18
2016-02-08T03:31:47.229Z,6.17
2016-02-08T03:32:47.216Z,6.08
2016-02-08T03:33:47.234Z,6.14
2016-02-08T03:34:47.237Z,6.04
2016-02-08T03:35:47.209Z,6.12
2016-02-08T03:36:47.212Z,6.06
2016-02-08T03:37:47.246Z,6.04
2016-02-08T03:38:47.217Z,6.01
2016-02-08T03:39:47.204Z,6.04
2016-02-08T03:40:47.223Z,6.08
2016-02-08T03:41:47.038Z,6.04
2016-02-08T03:42:47.197Z,6.11
2016-02-08T03:43:47.200Z,6.04
2016-02-08T03:44:47.188Z,6.01
2016-02-08T03:45:47.205Z,6.12
2016-02-08T03:46:47.208Z,6.03
2016-02-08T03:47:47.182Z,6.11
2016-02-08T03:48:47.200Z,6.11
2016-02-08T03:49:47.203Z,6.09
2016-02-08T03:50:47.179Z,6.09
2016-02-08T03:51:47.166Z,6.09
2016-02-08T03:52:47.169Z,6.08
2016-02-08T03:53:47.219Z,6.15
2016-02-08T03:54:47.158Z,6.15
2016-02-08T03:55:47.193Z,6.18
2016-02-08T03:56:47.196Z,6.11
2016-02-08T03:57:47.168Z,6.17
2016-02-08T03:58:47.155Z,6.15
2016-02-08T03:59:47.158Z,6.17
2016-02-08T04:00:47.145Z,6.28
2016-02-08T04:01:47.131Z,6.21
2016-02-08T04:02:47.150Z,6.12
2016-02-08T04:03:47.009Z,6.19
2016-02-08T04:04:47.153Z,6.21
2016-02-08T04:05:47.139Z,6.25
2016-02-08T04:06:47.142Z,6.33
2016-02-08T04:07:47.129Z,6.17
2016-02-08T04:08:47.116Z,6.21
2016-02-08T04:09:47.120Z,6.18
2016-02-08T04:10:47.123Z,6.18
2016-02-08T04:11:47.141Z,6.19
2016-02-08T04:12:47.114Z,6.3
2016-02-08T04:13:47.117Z,6.25
2016-02-08T04:14:47.136Z,6.25
2016-02-08T04:15:47.107Z,6.22
2016-02-08T04:16:47.141Z,6.15
2016-02-08T04:17:47.098Z,6.18
2016-02-08T04:18:47.100Z,6.28
2016-02-08T04:19:47.103Z,6.12
2016-02-08T04:20:47.106Z,6.22
2016-02-08T04:21:47.108Z,6.27
2016-02-08T04:22:47.096Z,6.17
2016-02-08T04:23:47.130Z,6.22
2016-02-08T04:24:47.086Z,6.21
2016-02-08T04:25:47.074Z,6.17
2016-02-08T04:26:47.093Z,6.22
2016-02-08T04:27:47.080Z,6.21
2016-02-08T04:28:47.083Z,6.28
2016-02-08T04:29:47.085Z,6.19
2016-02-08T04:30:47.073Z,6.31
2016-02-08T04:31:47.060Z,6.22
2016-02-08T04:32:47.063Z,6.18
2016-02-08T04:33:47.066Z,6.21
2016-02-08T04:34:47.053Z,6.21
2016-02-08T04:35:47.072Z,6.19
2016-02-08T04:36:47.075Z,6.22
2016-02-08T04:37:47.061Z,6.22
2016-02-08T04:38:47.050Z,6.22
2016-02-08T04:39:47.052Z,6.28
2016-02-08T04:40:47.023Z,6.25
2016-02-08T04:41:47.042Z,6.3
2016-02-08T04:42:47.031Z,6.25
2016-02-08T04:43:47.050Z,6.21
2016-02-08T04:44:47.022Z,6.18
2016-02-08T04:45:47.024Z,6.17
2016-02-08T04:46:47.027Z,6.12
2016-02-08T04:47:47.013Z,6.27
2016-02-08T04:48:47.016Z,6.15
2016-02-08T04:49:47.035Z,6.18
2016-02-08T04:50:47.005Z,6.18
2016-02-08T04:51:47.040Z,6.21
2016-02-08T04:52:47.012Z,6.19
2016-02-08T04:53:47.015Z,6.25
2016-02-08T04:54:47.034Z,6.14
2016-02-08T04:55:47.036Z,6.17
2016-02-08T04:56:47.008Z,6.28
2016-02-08T04:57:46.995Z,6.21
2016-02-08T04:58:46.997Z,6.18
2016-02-08T04:59:47.000Z,6.18
2016-02-08T05:00:46.987Z,6.12
2016-02-08T05:01:46.990Z,6.28
2016-02-08T05:02:46.977Z,6.28
2016-02-08T05:03:46.995Z,6.18
2016-02-08T05:04:46.963Z,6.22
2016-02-08T05:05:46.966Z,6.27
2016-02-08T05:06:46.954Z,6.25
2016-02-08T05:07:46.957Z,6.17
2016-02-08T05:08:46.959Z,6.33
2016-02-08T05:09:46.962Z,6.28
2016-02-08T05:10:46.964Z,6.19
2016-02-08T05:11:46.967Z,6.28
2016-02-08T05:12:46.933Z,6.28
2016-02-08T05:13:46.936Z,6.31
2016-02-08T05:14:46.939Z,6.31
2016-02-08T05:15:46.925Z,6.25
2016-02-08T05:16:46.943Z,6.22
2016-02-08T05:17:46.930Z,6.21
2016-02-08T05:18:46.918Z,6.17
2016-02-08T05:19:46.937Z,6.19
2016-02-08T05:20:46.923Z,6.12
2016-02-08T05:21:46.912Z,6.14
2016-02-08T05:22:46.907Z,6.22
2016-02-08T05:23:46.915Z,6.17
2016-02-08T05:24:47.097Z,6.18
2016-02-08T05:25:46.872Z,6.28
2016-02-08T05:26:46.851Z,6.09
2016-02-08T05:27:46.849Z,6.09
2016-02-08T05:28:46.849Z,6.12
2016-02-08T05:29:46.833Z,6.14
2016-02-08T05:30:46.847Z,6.12
2016-02-08T05:31:46.894Z,6.06
2016-02-08T05:32:46.817Z,6.17
2016-02-08T05:33:46.818Z,6.18
2016-02-08T05:34:46.883Z,6.19
2016-02-08T05:35:46.806Z,6.17
2016-02-08T05:36:46.917Z,6.12
2016-02-08T05:37:46.794Z,6.15
2016-02-08T05:38:46.813Z,6.21
2016-02-08T05:39:46.783Z,6.09
2016-02-08T05:40:46.819Z,6.12
2016-02-08T05:41:46.808Z,6.14
2016-02-08T05:42:46.779Z,6.11
2016-02-08T05:43:46.767Z,6.08
2016-02-08T05:44:46.770Z,6.09
2016-02-08T05:45:46.773Z,6.12
2016-02-08T05:46:46.791Z,6.18
2016-02-08T05:47:46.778Z,6.09
2016-02-08T05:48:46.797Z,6.12
2016-02-08T05:49:46.767Z,6.18
2016-02-08T05:50:46.769Z,6.14
2016-02-08T05:51:46.758Z,6.12
2016-02-08T05:52:46.744Z,6.04
2016-02-08T05:53:46.763Z,6.15
2016-02-08T05:54:46.750Z,6.09
2016-02-08T05:55:46.768Z,6.12
2016-02-08T05:56:46.739Z,6.06
2016-02-08T05:57:46.742Z,6.08
2016-02-08T05:58:46.744Z,6.03
2016-02-08T05:59:46.747Z,6.11
2016-02-08T06:00:46.735Z,6.04
2016-02-08T06:01:46.738Z,6.03
2016-02-08T06:02:46.742Z,6.11
2016-02-08T06:03:46.713Z,6.03
2016-02-08T06:04:46.715Z,6.04
2016-02-08T06:05:46.719Z,6.03
2016-02-08T06:06:46.721Z,6.09
2016-02-08T06:07:46.707Z,5.99
2016-02-08T06:08:46.710Z,5.96
2016-02-08T06:09:46.713Z,5.97
2016-02-08T06:10:46.716Z,6.01
2016-02-08T06:11:46.687Z,5.99
2016-02-08T06:12:46.533Z,5.97
2016-02-08T06:13:46.695Z,5.93
2016-02-08T06:14:46.667Z,5.99
2016-02-08T06:15:46.530Z,5.91
2016-02-08T06:16:46.689Z,5.97
2016-02-08T06:17:46.676Z,5.99
2016-02-08T06:18:46.663Z,5.93
2016-02-08T06:19:46.681Z,6.01
2016-02-08T06:20:46.669Z,5.97
2016-02-08T06:21:46.655Z,5.97
2016-02-08T06:22:46.689Z,5.96
2016-02-08T06:23:46.661Z,5.93
2016-02-08T06:24:46.665Z,5.9
2016-02-08T06:25:46.651Z,5.89
2016-02-08T06:26:46.669Z,5.93
2016-02-08T06:27:46.657Z,5.9
2016-02-08T06:28:46.646Z,5.83
2016-02-08T06:29:46.649Z,5.81
2016-02-08T06:30:46.636Z,5.79
2016-02-08T06:31:46.654Z,5.93
2016-02-08T06:32:46.641Z,5.93
2016-02-08T06:33:46.660Z,5.9
2016-02-08T06:34:46.630Z,5.91
2016-02-08T06:35:46.649Z,5.83
2016-02-08T06:36:46.626Z,5.9
2016-02-08T06:37:46.612Z,5.89
2016-02-08T06:38:46.615Z,5.89
2016-02-08T06:39:46.602Z,5.93
2016-02-08T06:40:46.604Z,5.81
2016-02-08T06:41:46.607Z,5.93
2016-02-08T06:42:46.610Z,5.9
2016-02-08T06:43:46.473Z,5.89
2016-02-08T06:44:46.603Z,5.93
2016-02-08T06:45:46.575Z,5.93
2016-02-08T06:46:46.577Z,5.94
2016-02-08T06:47:46.595Z,5.91
2016-02-08T06:48:46.567Z,5.85
2016-02-08T06:49:46.569Z,5.83
2016-02-08T06:50:46.574Z,5.89
2016-02-08T06:51:46.561Z,5.91
2016-02-08T06:52:46.580Z,5.96
2016-02-08T06:53:46.566Z,5.9
2016-02-08T06:54:46.569Z,5.97
2016-02-08T06:55:46.416Z,5.93
2016-02-08T06:56:46.543Z,5.97
2016-02-08T06:57:46.546Z,5.93
2016-02-08T06:58:46.551Z,5.96
2016-02-08T06:59:46.537Z,5.96
2016-02-08T07:00:46.540Z,5.93
2016-02-08T07:01:46.590Z,5.94
2016-02-08T07:02:46.545Z,5.96
2016-02-08T07:03:46.565Z,5.93
2016-02-08T07:04:46.537Z,5.93
2016-02-08T07:05:46.523Z,5.96
2016-02-08T07:06:46.531Z,5.96
2016-02-08T07:07:46.533Z,5.99
2016-02-08T07:08:46.504Z,5.96
2016-02-08T07:09:46.523Z,6.01
2016-02-08T07:10:46.510Z,6.01
2016-02-08T07:11:46.498Z,6.03
2016-02-08T07:12:46.516Z,6.04
2016-02-08T07:13:46.503Z,6.04
2016-02-08T07:14:46.492Z,6.11
2016-02-08T07:15:46.510Z,6.09
2016-02-08T07:16:46.482Z,6.09
2016-02-08T07:17:46.485Z,6.08
2016-02-08T07:18:46.331Z,6.08
2016-02-08T07:19:46.490Z,6.15
2016-02-08T07:20:46.493Z,6.15
2016-02-08T07:21:46.465Z,6.12
2016-02-08T07:22:46.467Z,6.12
2016-02-08T07:23:46.454Z,6.17
2016-02-08T07:24:46.473Z,6.27
2016-02-08T07:25:46.461Z,6.25
2016-02-08T07:26:46.478Z,6.17
2016-02-08T07:27:46.465Z,6.18
2016-02-08T07:28:46.453Z,6.27
2016-02-08T07:29:46.471Z,6.31
2016-02-08T07:30:46.457Z,6.34
2016-02-08T07:31:46.446Z,6.31
2016-02-08T07:32:46.448Z,6.43
2016-02-08T07:33:46.435Z,6.44
2016-02-08T07:34:46.454Z,6.48
2016-02-08T07:35:46.440Z,6.56
2016-02-08T07:36:46.459Z,6.59
2016-02-08T07:37:46.446Z,6.62
2016-02-08T07:38:46.433Z,6.69
2016-02-08T07:39:46.436Z,6.69
2016-02-08T07:40:46.939Z,6.74
2016-02-08T07:41:46.646Z,6.79
2016-02-08T07:42:46.681Z,6.79
2016-02-08T07:43:46.715Z,6.76
2016-02-08T07:44:46.672Z,6.87
2016-02-08T07:45:45.894Z,6.84
2016-02-08T07:46:46.667Z,6.94
2016-02-08T07:47:46.654Z,6.98
2016-02-08T07:48:46.594Z,7.03
2016-02-08T07:49:46.738Z,7.05
2016-02-08T07:50:46.647Z,7.07
2016-02-08T07:51:46.649Z,7.03
2016-02-08T07:52:46.651Z,7.13
2016-02-08T07:53:46.624Z,7.16
2016-02-08T07:54:46.688Z,7.24
2016-02-08T07:55:46.676Z,7.24
2016-02-08T07:56:47.147Z,7.32
2016-02-08T07:57:46.603Z,7.35
2016-02-08T07:58:46.606Z,7.37
2016-02-08T07:59:46.548Z,7.34
2016-02-08T08:00:46.597Z,7.42
2016-02-08T08:01:46.663Z,7.46
2016-02-08T08:02:46.572Z,7.46
2016-02-08T08:03:46.652Z,7.5
2016-02-08T08:04:46.515Z,7.5
2016-02-08T08:05:46.626Z,7.48
2016-02-08T08:06:46.738Z,7.49
2016-02-08T08:07:46.585Z,7.5
2016-02-08T08:08:46.634Z,7.49
2016-02-08T08:09:46.575Z,7.52
2016-02-08T08:10:46.593Z,7.48
2016-02-08T08:11:46.611Z,7.52
2016-02-08T08:12:46.635Z,7.49
2016-02-08T08:13:46.621Z,7.53
2016-02-08T08:14:46.578Z,7.52
2016-02-08T08:15:46.533Z,7.48
2016-02-08T08:16:46.473Z,7.5
2016-02-08T08:17:46.460Z,7.58
2016-02-08T08:18:46.479Z,7.52
2016-02-08T08:19:46.606Z,7.6
2016-02-08T08:20:46.390Z,7.53
2016-02-08T08:21:46.941Z,7.55
2016-02-08T08:22:46.552Z,7.5
2016-02-08T08:23:46.666Z,7.55
2016-02-08T08:24:46.605Z,7.52
2016-02-08T08:25:46.732Z,7.55
2016-02-08T08:26:46.643Z,7.55
2016-02-08T08:27:46.458Z,7.58
2016-02-08T08:28:46.507Z,7.58
2016-02-08T08:29:46.623Z,7.53
2016-02-08T08:30:46.547Z,7.61
2016-02-08T08:31:46.659Z,7.5
2016-02-08T08:32:46.661Z,7.5
2016-02-08T08:33:46.649Z,7.53
2016-02-08T08:34:46.653Z,7.57
2016-02-08T08:35:46.592Z,7.48
2016-02-08T08:36:46.690Z,7.53
2016-02-08T08:37:46.629Z,7.53
2016-02-08T08:38:46.475Z,7.6
2016-02-08T08:39:46.479Z,7.52
2016-02-08T08:40:46.559Z,7.53
2016-02-08T08:41:46.702Z,7.5
2016-02-08T08:42:46.551Z,7.63
2016-02-08T08:43:46.506Z,7.63
2016-02-08T08:44:46.540Z,7.58
2016-02-08T08:45:46.823Z,7.6
2016-02-08T08:46:46.483Z,7.6
2016-02-08T08:47:46.704Z,7.6
2016-02-08T08:48:46.676Z,7.63
2016-02-08T08:49:46.351Z,7.61
2016-02-08T08:50:46.354Z,7.67
2016-02-08T08:51:46.341Z,7.61
2016-02-08T08:52:46.330Z,7.61
2016-02-08T08:53:46.332Z,7.68
2016-02-08T08:54:46.349Z,7.63
2016-02-08T08:55:46.353Z,7.69
2016-02-08T08:56:46.341Z,7.77
2016-02-08T08:57:46.344Z,7.68
2016-02-08T08:58:46.767Z,7.75
2016-02-08T08:59:46.849Z,7.8
2016-02-08T09:00:46.680Z,7.83
2016-02-08T09:01:46.481Z,7.82
2016-02-08T09:02:46.670Z,7.79
2016-02-08T09:03:46.782Z,7.75
2016-02-08T09:04:46.336Z,7.85
2016-02-08T09:05:46.323Z,7.86
2016-02-08T09:06:46.326Z,7.86
2016-02-08T09:07:46.329Z,7.9
2016-02-08T09:08:46.331Z,7.9
2016-02-08T09:09:46.335Z,7.9
2016-02-08T09:10:46.337Z,7.83
2016-02-08T09:11:46.343Z,7.87
2016-02-08T09:12:46.330Z,7.87
2016-02-08T09:13:46.332Z,7.87
2016-02-08T09:14:46.321Z,7.86
2016-02-08T09:15:45.636Z,7.98
2016-02-08T09:16:46.310Z,7.95
2016-02-08T09:17:46.315Z,7.97
2016-02-08T09:18:46.317Z,7.83
2016-02-08T09:19:46.320Z,7.98
2016-02-08T09:20:46.309Z,7.95
2016-02-08T09:21:46.312Z,7.89
2016-02-08T09:22:46.315Z,7.95
2016-02-08T09:23:46.317Z,7.9
2016-02-08T09:24:46.321Z,7.82
2016-02-08T09:25:46.323Z,7.95
2016-02-08T09:26:46.325Z,7.95
2016-02-08T09:27:46.329Z,7.95
2016-02-08T09:28:46.378Z,7.97
2016-02-08T09:29:46.317Z,7.9
2016-02-08T09:30:46.337Z,7.9
2016-02-08T09:31:46.308Z,8.07
2016-02-08T09:32:46.311Z,7.92
2016-02-08T09:33:46.329Z,8
2016-02-08T09:34:46.300Z,8.04
2016-02-08T09:35:46.319Z,8.01
2016-02-08T09:36:46.305Z,7.97
2016-02-08T09:37:46.308Z,8.04
2016-02-08T09:38:46.311Z,8.07
2016-02-08T09:39:46.298Z,8.05
2016-02-08T09:40:46.318Z,8.05
2016-02-08T09:41:46.304Z,8.04
2016-02-08T09:42:46.291Z,8.16
2016-02-08T09:43:46.310Z,8.15
2016-02-08T09:44:46.314Z,8.11
2016-02-08T09:45:46.302Z,8.15
2016-02-08T09:46:46.336Z,8.18
2016-02-08T09:47:46.307Z,8.22
2016-02-08T09:48:46.325Z,8.22
2016-02-08T09:49:46.312Z,8.29
2016-02-08T09:50:46.315Z,8.36
2016-02-08T09:51:46.318Z,8.28
2016-02-08T09:52:46.290Z,8.26
2016-02-08T09:53:46.310Z,8.33
2016-02-08T09:54:46.625Z,8.29
2016-02-08T09:55:46.611Z,8.33
2016-02-08T10:02:18.737Z,8.23
2016-02-08T10:03:08.147Z,8.38
2016-02-08T10:04:08.133Z,8.4
2016-02-08T10:05:08.933Z,8.34
2016-02-08T10:06:08.247Z,8.36
2016-02-08T10:07:08.412Z,8.34
2016-02-08T10:08:08.461Z,8.4
2016-02-08T10:09:08.136Z,8.43
2016-02-08T10:10:08.155Z,8.48
2016-02-08T10:11:08.439Z,8.41
2016-02-08T10:12:08.551Z,8.45
2016-02-08T10:13:08.225Z,8.41
2016-02-08T10:14:08.369Z,8.4
2016-02-08T10:15:08.593Z,8.4
2016-02-08T10:16:08.423Z,8.44
2016-02-08T10:17:08.379Z,8.43
2016-02-08T10:18:08.304Z,8.43
2016-02-08T10:19:08.338Z,8.47
2016-02-08T10:20:08.233Z,8.47
2016-02-08T10:21:08.406Z,8.38
2016-02-08T10:22:08.534Z,8.4
2016-02-08T10:23:08.256Z,8.44
2016-02-08T10:24:08.493Z,8.61
2016-02-08T10:25:08.386Z,8.53
2016-02-08T10:26:08.295Z,8.48
2016-02-08T10:27:08.282Z,8.5
2016-02-08T10:28:08.473Z,8.55
2016-02-08T10:29:08.522Z,8.62
2016-02-08T10:30:08.416Z,8.52
2016-02-08T10:31:08.340Z,8.59
2016-02-08T10:32:08.469Z,8.66
2016-02-08T10:33:08.518Z,8.63
2016-02-08T10:34:08.442Z,8.68
2016-02-08T10:35:08.383Z,8.62
2016-02-08T10:36:08.416Z,8.68
2016-02-08T10:37:08.294Z,8.76
2016-02-08T10:38:08.266Z,8.71
2016-02-08T10:39:08.455Z,8.76
2016-02-08T10:40:08.522Z,8.76
2016-02-08T10:41:08.540Z,8.79
2016-02-08T10:42:08.325Z,8.83
2016-02-08T10:43:08.297Z,8.76
2016-02-08T10:44:08.549Z,8.79
2016-02-08T10:45:08.474Z,8.79
2016-02-08T10:46:08.508Z,8.87
2016-02-08T10:47:08.339Z,8.92
2016-02-08T10:48:08.263Z,8.95
2016-02-08T10:49:08.423Z,8.87
2016-02-08T10:50:08.691Z,8.89
2016-02-08T10:51:08.536Z,8.91
2016-02-08T10:52:08.024Z,9.05
2016-02-08T10:53:08.449Z,8.95
2016-02-08T10:54:08.841Z,9.04
2016-02-08T10:55:08.766Z,8.98
2016-02-08T10:56:08.393Z,9.04
2016-02-08T10:57:08.444Z,9.14
2016-02-08T10:58:08.399Z,9.14
2016-02-08T10:59:08.496Z,9.1
2016-02-08T11:00:08.280Z,9.17
2016-02-08T11:01:08.391Z,9.14
2016-02-08T11:02:08.348Z,9.13
2016-02-08T11:03:08.414Z,9.14
2016-02-08T11:04:08.573Z,9.11
2016-02-08T11:05:07.919Z,9.17
2016-02-08T11:06:08.390Z,9.14
2016-02-08T11:07:08.425Z,9.18
2016-02-08T11:08:08.571Z,9.15
2016-02-08T11:09:08.480Z,9.21
2016-02-08T11:10:08.373Z,9.21
2016-02-08T11:11:08.427Z,9.23
2016-02-08T11:12:08.507Z,9.32
2016-02-08T11:13:08.509Z,9.26
2016-02-08T11:14:07.825Z,9.29
2016-02-08T11:15:08.765Z,9.26
2016-02-08T11:16:08.409Z,9.28
2016-02-08T11:17:08.615Z,9.33
2016-02-08T11:18:08.306Z,9.26
2016-02-08T11:19:08.449Z,9.29
2016-02-08T11:20:08.576Z,9.26
2016-02-08T11:21:08.596Z,9.29
2016-02-08T11:22:08.318Z,9.32
2016-02-08T11:23:07.788Z,9.32
2016-02-08T11:24:08.510Z,9.31
2016-02-08T11:25:08.404Z,9.33
2016-02-08T11:26:08.533Z,9.36
2016-02-08T11:27:08.675Z,9.29
2016-02-08T11:28:08.397Z,9.33
2016-02-08T11:29:08.259Z,9.28
2016-02-08T11:30:08.265Z,9.38
2016-02-08T11:31:08.456Z,9.4
2016-02-08T11:32:08.521Z,9.42
2016-02-08T11:33:08.587Z,9.43
2016-02-08T11:34:08.401Z,9.43
2016-02-08T11:35:08.639Z,9.4
2016-02-08T11:36:08.453Z,9.43
2016-02-08T11:37:08.273Z,9.42
2016-02-08T11:38:09.045Z,9.53
2016-02-08T11:39:08.453Z,9.54
2016-02-08T11:40:08.503Z,9.56
2016-02-08T11:41:08.553Z,9.58
2016-02-08T11:42:08.369Z,9.6
2016-02-08T11:43:08.357Z,9.66
2016-02-08T11:44:08.407Z,9.72
2016-02-08T11:45:08.394Z,9.74
2016-02-08T11:46:08.460Z,9.66
2016-02-08T11:47:08.385Z,9.68
2016-02-08T11:48:08.497Z,9.69
2016-02-08T11:49:08.406Z,9.75
2016-02-08T11:50:08.455Z,9.79
2016-02-08T11:51:08.474Z,9.79
2016-02-08T11:52:09.165Z,9.81
2016-02-08T11:53:08.808Z,9.87
2016-02-08T11:54:08.358Z,9.9
2016-02-08T11:55:08.532Z,9.99
2016-02-08T11:56:08.504Z,10.07
2016-02-08T11:57:08.746Z,10.02
2016-02-08T11:58:08.513Z,10.04
2016-02-08T11:59:08.469Z,10.15
2016-02-08T12:00:08.506Z,10.26
2016-02-08T12:01:08.416Z,10.32
2016-02-08T12:02:08.433Z,10.3
2016-02-08T12:03:08.280Z,10.33
2016-02-08T12:04:08.517Z,10.47
2016-02-08T12:05:08.412Z,10.41
2016-02-08T12:06:08.570Z,10.59
2016-02-08T12:07:08.656Z,10.59
2016-02-08T12:08:08.519Z,10.63
2016-02-08T12:09:08.583Z,10.67
2016-02-08T12:10:08.399Z,10.74
2016-02-08T12:11:08.526Z,10.74
2016-02-08T12:12:08.436Z,10.89
2016-02-08T12:13:08.548Z,10.85
2016-02-08T12:14:08.628Z,10.81
2016-02-08T12:15:08.492Z,10.84
2016-02-08T12:16:08.416Z,10.85
2016-02-08T12:17:08.653Z,10.89
2016-02-08T12:18:08.639Z,10.91
2016-02-08T12:19:08.424Z,10.94
2016-02-08T12:20:08.395Z,11.03
2016-02-08T12:21:08.430Z,10.96
2016-02-08T12:22:08.479Z,11.02
2016-02-08T12:23:08.607Z,11.02
2016-02-08T12:24:08.641Z,11.07
2016-02-08T12:25:08.705Z,11.19
2016-02-08T12:26:08.521Z,11.24
2016-02-08T12:27:08.556Z,11.35
2016-02-08T12:28:08.746Z,11.35
2016-02-08T12:29:08.655Z,11.35
2016-02-08T12:30:08.627Z,11.44
2016-02-08T12:31:08.910Z,11.37
2016-02-08T12:32:08.616Z,11.4
2016-02-08T12:33:08.681Z,11.55
2016-02-08T12:34:08.480Z,11.62
2016-02-08T12:35:08.578Z,11.57
2016-02-08T12:36:08.612Z,11.58
2016-02-08T12:37:08.568Z,11.69
2016-02-08T12:38:08.649Z,11.52
2016-02-08T12:39:08.511Z,11.6
2016-02-08T12:40:07.984Z,11.61
2016-02-08T12:41:08.502Z,11.61
2016-02-08T12:42:08.707Z,11.61
2016-02-08T12:43:08.555Z,11.65
2016-02-08T12:44:08.652Z,11.8
2016-02-08T12:45:07.857Z,11.8
2016-02-08T12:46:08.860Z,11.76
2016-02-08T12:47:52.664Z,11.9
2016-02-08T12:48:09.461Z,11.91
2016-02-08T12:49:08.728Z,11.94
2016-02-08T12:50:11.777Z,11.91
2016-02-08T12:51:08.686Z,11.91
2016-02-08T12:52:07.938Z,12.02
2016-02-08T12:53:07.817Z,11.99
2016-02-08T12:54:08.679Z,12.1
2016-02-08T12:55:08.619Z,12.09
2016-02-08T12:56:08.637Z,12.14
2016-02-08T12:57:08.657Z,12.1
2016-02-08T12:58:08.690Z,12.16
2016-02-08T12:59:08.692Z,12.24
2016-02-08T13:00:08.743Z,12.34
2016-02-08T13:01:08.729Z,12.32
2016-02-08T13:02:08.686Z,12.41
2016-02-08T13:03:08.673Z,12.41
2016-02-08T13:04:08.738Z,12.47
2016-02-08T13:05:08.569Z,12.45
2016-02-08T13:06:08.713Z,12.52
2016-02-08T13:07:08.777Z,12.54
2016-02-08T13:08:08.805Z,12.52
2016-02-08T13:09:08.808Z,12.59
2016-02-08T13:10:08.687Z,12.56
2016-02-08T13:11:08.720Z,12.52
2016-02-08T13:12:08.722Z,12.53
2016-02-08T13:13:08.898Z,12.41
2016-02-08T13:14:08.869Z,12.47
2016-02-08T13:15:08.715Z,12.49
2016-02-08T13:16:08.811Z,12.47
2016-02-08T13:17:09.173Z,12.34
2016-02-08T13:18:08.755Z,12.34
2016-02-08T13:19:08.773Z,12.29
2016-02-08T13:20:09.103Z,12.37
2016-02-08T13:21:08.793Z,12.21
2016-02-08T13:22:08.766Z,12.09
2016-02-08T13:23:08.598Z,12.05